Hill City, SD

9:48 AM MDT on May 27, 2015 (GMT -0600)
RAWS | | Change Station
CLOSE
Current Station
Personal Weather Station
Location: Hill City, SD
Elevation: 6848 ft
Nearby Weather Stations
Active Advisory: Areal Flood Warning

Elev 6848 ft 44.13 °N, 103.84 °W | Updated 40 minutes ago

Overcast
Overcast
51 °F
Feels Like 51 °F
N
8
Wind Variable Wind from SSW
Gusts 16.0 mph

Today
High -- | Low -- °F
--% Chance of Precip.
Yesterday
High -- | Low -- °F
Precip. -- in
5:18 AM 8:26 PM
Waxing Gibbous, 68% visible
Pressure 29.97 in
Visibility 10.0 miles
Clouds Mostly Cloudy 12000 ft
Dew Point 44 °F
Humidity 76%
Rainfall in
Snow Depth Not available.
UV 3 out of 12
Pollen 8.10 out of 12
Air Quality Not available.
Flu Activity Sporadic
METAR KCUT 271453Z AUTO 00000KT 10SM BKN120 13/09 A3007 RMK AO2 SLP147 T01280094 53002

More Conditions Fewer Conditions

Pressure 29.97 in
Visibility 10.0 miles
Clouds Mostly Cloudy 12000 ft
Dew Point 44 °F
Humidity 76%
Rainfall in
Snow Depth Not available.
UV 3 out of 12
Pollen 8.10 out of 12
Air Quality Not available.
Flu Activity Sporadic
METAR KCUT 271453Z AUTO 00000KT 10SM BKN120 13/09 A3007 RMK AO2 SLP147 T01280094 53002

More Conditions Fewer Conditions

10-Day Weather Forecast

Almanac

Astronomy

May. 27, 2015 Rise Set
Actual Time
Civil Twilight
Nautical Twilight
Astronomical Twilight
Moon
Length of Visible Light
Length of Day
Tomorrow will be .
, % of the Moon is Illuminated

Today's Extremes

State Highs State Lows

Community

WunderPhotos

Upload Photos

1,824,699 photos uploaded!

WunderBlogs® & News

Nearby

Air Quality

  Air Quality AQ Index Pollutant
Not available.

Snow Depth

Station Depth Elevation

Earthquake Activity

City Distance Mag. Time & Date
Minimum magnitude displayed is 2.5.

Coastal Water Temperatures

Place Temperature

Stations

Nearby Weather Stations

Station Location Temp. Windchill Dew Point Humidity Wind Precip. Elev Updated Type
                   
Areal Flood Warning
Statement as of 5:20 AM MDT on May 27, 2015

... A Flood Warning remains in effect until 1000 am MDT Wednesday for
south Central Pennington and northeastern Custer counties...

The reporting gauge near Rockerville on Spring Creek continues to
show minor flooding. Spring Creek stream levels will remain very
high from Rockerville to the Cheyenne river due to recent heavy
rainfall.

Some locations that will experience flooding include...
Folsom and Rockerville.

Precautionary/preparedness actions...

Do not drive your vehicle into areas where the water covers the
roadway. The water depth may be too great to allow your car to cross
safely. Move to higher ground.


Lat... Lon 4387 10294 4380 10269 4375 10275 4382 10298
      4395 10324 4392 10343 4399 10347 4402 10318


Johnson